createdAt,value
2023-05-24T00:00:35.519Z,3.80
2023-05-24T00:04:19.907Z,3.60
2023-05-24T00:08:02.696Z,3.97
2023-05-24T00:11:45.415Z,3.57
2023-05-24T00:15:28.216Z,3.97
2023-05-24T00:19:11.865Z,4.07
2023-05-24T00:22:55.994Z,3.63
2023-05-24T00:26:38.755Z,4.10
2023-05-24T00:30:21.460Z,4.00
2023-05-24T00:34:04.428Z,4.00
2023-05-24T00:37:48.174Z,4.20
2023-05-24T00:41:32.294Z,4.17
2023-05-24T00:45:15.356Z,3.87
2023-05-24T00:48:58.310Z,4.40
2023-05-24T00:52:42.067Z,4.50
2023-05-24T00:56:24.981Z,4.80
2023-05-24T01:00:11.245Z,4.60
2023-05-24T01:03:54.386Z,5.07
2023-05-24T01:07:44.445Z,5.07
2023-05-24T01:11:31.972Z,4.73
2023-05-24T01:15:23.531Z,4.97
2023-05-24T01:19:25.901Z,5.03
2023-05-24T01:23:16.719Z,5.63
2023-05-24T01:27:10.182Z,5.40
2023-05-24T01:30:52.969Z,5.33
2023-05-24T01:34:35.772Z,5.40
2023-05-24T01:38:18.451Z,5.47
2023-05-24T01:42:08.860Z,5.90
2023-05-24T01:46:01.295Z,5.20
2023-05-24T01:49:49.238Z,5.80
2023-05-24T01:53:34.926Z,5.50
2023-05-24T01:57:19.722Z,5.67
2023-05-24T02:01:03.939Z,5.07
2023-05-24T02:04:47.021Z,6.00
2023-05-24T02:08:29.768Z,6.27
2023-05-24T02:12:13.197Z,5.20
2023-05-24T02:15:55.984Z,5.60
2023-05-24T02:19:40.118Z,6.10
2023-05-24T02:23:22.829Z,5.77
2023-05-24T02:27:05.897Z,5.70
2023-05-24T02:30:48.656Z,6.40
2023-05-24T02:34:35.651Z,5.47
2023-05-24T02:38:19.761Z,5.30
2023-05-24T02:42:04.700Z,6.07
2023-05-24T02:45:47.687Z,5.33
2023-05-24T02:49:30.511Z,5.97
2023-05-24T02:53:13.295Z,5.57
2023-05-24T02:56:58.022Z,5.70
2023-05-24T03:00:41.090Z,6.30
2023-05-24T03:04:23.865Z,6.00
2023-05-24T03:08:07.412Z,6.20
2023-05-24T03:11:50.175Z,6.47
2023-05-24T03:15:34.274Z,6.63
2023-05-24T03:19:18.036Z,6.80
2023-05-24T03:23:00.758Z,7.07
2023-05-24T03:26:43.587Z,6.77
2023-05-24T03:30:26.357Z,6.50
2023-05-24T03:34:10.412Z,7.17
2023-05-24T03:37:53.183Z,6.43
2023-05-24T03:41:35.955Z,6.60
2023-05-24T03:45:26.933Z,7.30
2023-05-24T03:49:14.959Z,6.20
2023-05-24T03:52:57.677Z,6.93
2023-05-24T03:56:40.414Z,6.43
2023-05-24T04:00:23.425Z,7.40
2023-05-24T04:04:06.412Z,7.30
2023-05-24T04:07:50.926Z,6.27
2023-05-24T04:11:33.778Z,7.00
2023-05-24T04:15:16.612Z,7.60
2023-05-24T04:19:01.080Z,7.73
2023-05-24T04:22:43.864Z,7.93
2023-05-24T04:26:28.259Z,7.50
2023-05-24T04:30:11.421Z,8.13
2023-05-24T04:33:54.227Z,7.63
2023-05-24T04:37:36.934Z,8.13
2023-05-24T04:41:19.673Z,7.53
2023-05-24T04:45:03.923Z,6.80
2023-05-24T04:48:46.680Z,7.07
2023-05-24T04:52:30.506Z,7.53
2023-05-24T04:56:14.960Z,6.90
2023-05-24T04:59:57.638Z,6.37
2023-05-24T05:03:41.992Z,6.03
2023-05-24T05:07:24.774Z,5.80
2023-05-24T05:11:07.691Z,5.40
2023-05-24T05:14:50.642Z,5.50
2023-05-24T05:18:33.912Z,5.50
2023-05-24T05:22:18.080Z,6.17
2023-05-24T05:26:00.822Z,5.97
2023-05-24T05:29:44.114Z,5.60
2023-05-24T05:33:27.196Z,5.53
2023-05-24T05:37:10.228Z,5.27
2023-05-24T05:40:54.376Z,5.10
2023-05-24T05:44:37.409Z,4.83
2023-05-24T05:48:20.484Z,5.40
2023-05-24T05:52:03.373Z,5.30
2023-05-24T05:55:46.124Z,5.83
2023-05-24T05:59:30.217Z,6.50
2023-05-24T06:03:13.202Z,6.70
2023-05-24T06:06:56.972Z,5.60
2023-05-24T06:10:39.710Z,6.23
2023-05-24T06:14:25.079Z,5.50
2023-05-24T06:18:09.361Z,5.70
2023-05-24T06:21:52.184Z,6.23
2023-05-24T06:25:35.112Z,5.97
2023-05-24T06:29:20.162Z,5.83
2023-05-24T06:33:03.336Z,6.77
2023-05-24T06:36:48.507Z,5.83
2023-05-24T06:40:31.287Z,5.90
2023-05-24T06:44:14.140Z,5.70
2023-05-24T06:47:57.068Z,6.13
2023-05-24T06:51:39.793Z,5.70
2023-05-24T06:55:24.184Z,6.37
2023-05-24T06:59:08.736Z,5.90
2023-05-24T07:02:51.556Z,5.20
2023-05-24T07:06:34.342Z,6.20
2023-05-24T07:10:17.117Z,6.73
2023-05-24T07:14:01.159Z,6.47
2023-05-24T07:17:43.981Z,7.33
2023-05-24T07:21:26.772Z,7.37
2023-05-24T07:25:10.504Z,7.83
2023-05-24T07:28:53.293Z,7.30
2023-05-24T07:32:37.563Z,7.33
2023-05-24T07:36:21.477Z,7.57
2023-05-24T07:40:05.499Z,7.83
2023-05-24T07:43:48.251Z,7.30
2023-05-24T07:47:31.086Z,7.20
2023-05-24T07:51:15.581Z,7.90
2023-05-24T07:54:58.311Z,7.50
2023-05-24T07:58:41.998Z,7.50
2023-05-24T08:02:24.926Z,8.20
2023-05-24T08:06:07.893Z,6.97
2023-05-24T08:09:52.014Z,7.87
2023-05-24T08:13:37.840Z,8.33
2023-05-24T08:17:20.782Z,8.60
2023-05-24T08:21:03.712Z,8.10
2023-05-24T08:24:46.551Z,7.53
2023-05-24T08:28:30.982Z,8.80
2023-05-24T08:32:13.762Z,9.97
2023-05-24T08:35:56.649Z,10.00
2023-05-24T08:39:39.425Z,10.93
2023-05-24T08:43:22.690Z,11.63
2023-05-24T08:47:07.135Z,12.40
2023-05-24T08:50:50.528Z,11.83
2023-05-24T08:54:33.952Z,10.93
2023-05-24T08:58:17.341Z,9.67
2023-05-24T09:02:01.250Z,10.40
2023-05-24T09:05:46.392Z,10.13
2023-05-24T09:09:29.960Z,9.77
2023-05-24T09:13:13.596Z,10.10
2023-05-24T09:16:56.924Z,10.70
2023-05-24T09:20:42.904Z,11.77
2023-05-24T09:24:27.727Z,11.23
2023-05-24T09:28:11.848Z,11.80
2023-05-24T09:31:57.739Z,9.73
2023-05-24T09:35:43.808Z,10.23
2023-05-24T09:39:28.147Z,10.53
2023-05-24T09:43:11.287Z,11.40
2023-05-24T09:46:54.047Z,10.83
2023-05-24T09:50:36.900Z,10.13
2023-05-24T09:54:19.654Z,9.70
2023-05-24T09:58:08.398Z,9.20
2023-05-24T10:01:53.971Z,9.33
2023-05-24T10:05:37.272Z,9.70
2023-05-24T10:09:22.069Z,16.07
2023-05-24T10:13:06.205Z,10.70
2023-05-24T10:16:48.976Z,9.50
2023-05-24T10:20:32.723Z,10.03
2023-05-24T10:24:19.270Z,10.33
2023-05-24T10:28:04.417Z,10.00
2023-05-24T10:31:49.617Z,10.43
2023-05-24T10:35:34.113Z,10.20
2023-05-24T10:39:17.812Z,10.53
2023-05-24T10:43:00.985Z,10.07
2023-05-24T10:47:18.604Z,9.20
2023-05-24T10:51:02.945Z,9.13
2023-05-24T10:55:05.381Z,8.93
2023-05-24T10:59:00.286Z,9.10
2023-05-24T11:02:44.762Z,9.17
2023-05-24T11:06:47.378Z,9.17
2023-05-24T11:10:31.743Z,8.60
2023-05-24T11:14:16.001Z,9.40
2023-05-24T11:18:20.375Z,8.37
2023-05-24T11:22:04.860Z,8.47
2023-05-24T11:25:48.436Z,8.10
2023-05-24T11:29:31.414Z,7.80
2023-05-24T11:33:20.042Z,7.40
2023-05-24T11:37:06.037Z,7.00
2023-05-24T11:40:49.713Z,7.33
2023-05-24T11:44:33.839Z,8.47
2023-05-24T11:48:17.292Z,7.30
2023-05-24T11:52:03.434Z,7.47
2023-05-24T11:55:46.263Z,7.10
2023-05-24T11:59:30.202Z,7.27
2023-05-24T12:03:13.346Z,8.30
2023-05-24T12:06:56.466Z,7.83
2023-05-24T12:10:44.071Z,7.13
2023-05-24T12:14:31.106Z,8.53
2023-05-24T12:18:19.925Z,8.07
2023-05-24T12:22:06.158Z,7.40
2023-05-24T12:25:50.692Z,7.07
2023-05-24T12:29:36.956Z,8.50
2023-05-24T12:33:20.432Z,7.40
2023-05-24T12:37:04.803Z,6.80
2023-05-24T12:40:57.086Z,7.00
2023-05-24T12:44:54.327Z,7.03
2023-05-24T12:48:37.142Z,7.30
2023-05-24T12:52:20.358Z,6.20
2023-05-24T12:56:03.149Z,7.10
2023-05-24T12:59:46.079Z,7.57
2023-05-24T13:03:30.142Z,7.00
2023-05-24T13:07:12.888Z,6.97
2023-05-24T13:10:55.581Z,6.13
2023-05-24T13:14:38.389Z,7.00
2023-05-24T13:18:21.241Z,6.57
2023-05-24T13:22:05.388Z,6.07
2023-05-24T13:25:48.301Z,6.40
2023-05-24T13:29:39.296Z,6.23
2023-05-24T13:33:29.384Z,5.97
2023-05-24T13:37:13.556Z,6.40
2023-05-24T13:40:56.492Z,6.00
2023-05-24T13:44:39.651Z,5.77
2023-05-24T13:48:22.509Z,6.00
2023-05-24T13:52:05.687Z,5.57
2023-05-24T13:55:49.805Z,6.63
2023-05-24T13:59:32.513Z,5.93
2023-05-24T14:03:16.038Z,5.90
2023-05-24T14:06:58.768Z,5.10
2023-05-24T14:10:41.521Z,5.03
2023-05-24T14:18:11.708Z,5.93
2023-05-24T14:21:54.493Z,6.37
2023-05-24T14:25:37.306Z,7.70
2023-05-24T14:29:20.033Z,8.20
2023-05-24T14:33:06.261Z,6.83
2023-05-24T14:36:49.167Z,7.30
2023-05-24T14:40:31.972Z,6.30
2023-05-24T14:44:14.803Z,7.00
2023-05-24T14:47:57.962Z,8.37
2023-05-24T14:51:42.144Z,6.27
2023-05-24T14:55:24.966Z,6.67
2023-05-24T14:59:07.754Z,6.47
2023-05-24T15:02:50.526Z,6.10
2023-05-24T15:06:35.232Z,5.63
2023-05-24T15:10:19.440Z,5.83
2023-05-24T15:14:02.407Z,5.60
2023-05-24T15:17:45.152Z,5.47
2023-05-24T15:21:27.967Z,5.32
2023-05-24T15:25:11.333Z,5.20
2023-05-24T15:28:55.525Z,5.32
2023-05-24T15:32:38.308Z,5.38
2023-05-24T15:36:21.089Z,5.72
2023-05-24T15:40:04.441Z,5.45
2023-05-24T15:43:47.267Z,4.70
2023-05-24T15:47:36.433Z,5.18
2023-05-24T15:51:50.914Z,4.65
2023-05-24T15:55:22.467Z,4.47
2023-05-24T15:59:05.183Z,4.30
2023-05-24T16:02:51.545Z,4.15
2023-05-24T16:06:34.381Z,3.75
2023-05-24T16:10:18.380Z,4.05
2023-05-24T16:14:01.031Z,4.05
2023-05-24T16:17:44.720Z,4.05
2023-05-24T16:21:28.897Z,4.70
2023-05-24T16:25:11.625Z,4.00
2023-05-24T16:28:55.056Z,4.25
2023-05-24T16:32:37.781Z,5.43
2023-05-24T16:36:22.607Z,5.38
2023-05-24T16:40:08.251Z,5.15
2023-05-24T16:43:50.930Z,9.98
2023-05-24T16:47:33.731Z,4.35
2023-05-24T16:51:16.516Z,5.00
2023-05-24T16:54:59.973Z,5.25
2023-05-24T16:58:44.175Z,4.97
2023-05-24T17:02:27.038Z,6.13
2023-05-24T17:06:09.737Z,5.40
2023-05-24T17:09:52.820Z,6.30
2023-05-24T17:13:36.142Z,5.60
2023-05-24T17:17:20.335Z,5.60
2023-05-24T17:21:04.819Z,8.98
2023-05-24T17:24:47.537Z,6.78
2023-05-24T17:28:31.104Z,5.57
2023-05-24T17:32:15.416Z,6.40
2023-05-24T17:36:02.629Z,5.75
2023-05-24T17:39:45.446Z,6.68
2023-05-24T17:43:31.822Z,5.90
2023-05-24T17:47:14.830Z,5.80
2023-05-24T17:50:59.144Z,6.70
2023-05-24T17:54:41.929Z,6.07
2023-05-24T17:58:24.871Z,5.00
2023-05-24T18:02:07.612Z,6.35
2023-05-24T18:05:50.317Z,6.05
2023-05-24T18:09:34.483Z,5.70
2023-05-24T18:13:17.256Z,6.38
2023-05-24T18:17:00.168Z,6.75
2023-05-24T18:20:43.042Z,5.75
2023-05-24T18:24:25.810Z,6.20
2023-05-24T18:28:09.950Z,6.20
2023-05-24T18:31:52.821Z,6.30
2023-05-24T18:35:35.688Z,5.57
2023-05-24T18:39:19.067Z,6.40
2023-05-24T18:43:01.817Z,7.43
2023-05-24T18:46:45.907Z,5.33
2023-05-24T18:50:28.657Z,6.20
2023-05-24T18:54:13.020Z,7.00
2023-05-24T18:57:56.008Z,4.93
2023-05-24T19:01:38.785Z,5.73
2023-05-24T19:05:23.066Z,4.90
2023-05-24T19:09:05.832Z,5.13
2023-05-24T19:12:48.613Z,4.83
2023-05-24T19:16:31.362Z,5.40
2023-05-24T19:20:14.094Z,5.20
2023-05-24T19:23:58.443Z,4.77
2023-05-24T19:27:54.829Z,5.30
2023-05-24T19:31:41.722Z,5.67
2023-05-24T19:35:24.565Z,6.60
2023-05-24T19:39:08.765Z,6.40
2023-05-24T19:42:53.366Z,5.60
2023-05-24T19:46:36.970Z,6.43
2023-05-24T19:50:19.885Z,6.37
2023-05-24T19:54:02.668Z,6.10
2023-05-24T19:57:46.727Z,6.40
2023-05-24T20:01:29.428Z,6.17
2023-05-24T20:05:12.578Z,6.27
2023-05-24T20:08:57.792Z,6.43
2023-05-24T20:12:41.179Z,6.20
2023-05-24T20:16:25.472Z,6.03
2023-05-24T20:20:09.391Z,6.73
2023-05-24T20:23:57.563Z,7.47
2023-05-24T20:27:42.290Z,7.00
2023-05-24T20:31:26.486Z,7.93
2023-05-24T20:35:10.237Z,6.70
2023-05-24T20:38:53.031Z,7.07
2023-05-24T20:42:36.157Z,5.37
2023-05-24T20:46:19.007Z,7.03
2023-05-24T20:50:04.022Z,6.13
2023-05-24T20:53:49.302Z,6.77
2023-05-24T20:57:32.998Z,6.03
2023-05-24T21:01:16.936Z,6.03
2023-05-24T21:05:00.453Z,6.30
2023-05-24T21:08:45.135Z,5.47
2023-05-24T21:12:28.086Z,6.30
2023-05-24T21:16:11.057Z,5.57
2023-05-24T21:19:53.870Z,5.50
2023-05-24T21:23:36.787Z,5.83
2023-05-24T21:27:21.314Z,5.73
2023-05-24T21:31:05.322Z,8.90
2023-05-24T21:34:48.475Z,6.40
2023-05-24T21:38:31.187Z,5.70
2023-05-24T21:42:13.901Z,5.40
2023-05-24T21:45:57.957Z,4.57
2023-05-24T21:49:40.870Z,4.77
2023-05-24T21:53:23.608Z,4.53
2023-05-24T21:57:07.221Z,5.20
2023-05-24T22:00:50.981Z,4.40
2023-05-24T22:04:35.110Z,5.20
2023-05-24T22:08:17.845Z,4.43
2023-05-24T22:12:00.734Z,4.80
2023-05-24T22:15:43.659Z,4.30
2023-05-24T22:19:39.905Z,4.73
2023-05-24T22:23:24.637Z,4.30
2023-05-24T22:27:09.659Z,4.23
2023-05-24T22:30:53.753Z,4.00
2023-05-24T22:34:36.767Z,3.70
2023-05-24T22:38:19.540Z,3.73
2023-05-24T22:42:03.842Z,3.80
2023-05-24T22:45:46.870Z,3.43
2023-05-24T22:49:34.073Z,3.50
2023-05-24T22:53:17.998Z,4.10
2023-05-24T22:57:00.946Z,3.83
2023-05-24T23:00:45.061Z,3.73
2023-05-24T23:04:28.867Z,3.77
2023-05-24T23:08:13.082Z,4.83
2023-05-24T23:11:58.184Z,4.17
2023-05-24T23:15:41.474Z,3.67
2023-05-24T23:19:25.729Z,3.73
2023-05-24T23:23:11.254Z,3.60
2023-05-24T23:26:55.929Z,4.07
2023-05-24T23:30:38.825Z,4.27
2023-05-24T23:34:21.659Z,4.43
2023-05-24T23:38:05.753Z,4.37
2023-05-24T23:41:48.479Z,4.30
2023-05-24T23:45:31.501Z,4.20
2023-05-24T23:49:16.491Z,4.10
2023-05-24T23:52:59.851Z,4.23
2023-05-24T23:56:44.060Z,4.30
